Time;durP1;ratioP1;P1;durP2;ratioP2;P2;SDS_P1;SDS_P2;PMS_P1;PMS_P2;Temp;Humidity;BMP_temperature;BMP_pressure;BME280_temperature;BME280_humidity;BME280_pressure;Samples;Min_cycle;Max_cycle;Signal;HPM_P1;HPM_P2
2023/07/20 00:02:20;;;;;;;6.03;2.38;;;20.70;99.90;;;;;;4988148;28;20030;-83
2023/07/20 00:04:45;;;;;;;6.05;2.40;;;20.60;99.90;;;;;;4988441;28;20073;-83
2023/07/20 00:07:11;;;;;;;8.27;2.30;;;20.70;99.90;;;;;;4988665;28;20048;-83
2023/07/20 00:09:37;;;;;;;5.43;2.35;;;20.70;99.90;;;;;;4989538;28;20032;-83
2023/07/20 00:12:02;;;;;;;5.97;2.40;;;20.60;99.90;;;;;;4988724;28;20026;-83
2023/07/20 00:14:28;;;;;;;8.07;2.33;;;20.60;99.90;;;;;;4988789;28;20030;-83
2023/07/20 00:16:55;;;;;;;7.82;2.60;;;20.60;99.90;;;;;;4987431;28;20030;-83
2023/07/20 00:19:32;;;;;;;6.65;2.22;;;20.60;99.90;;;;;;4986081;28;20030;-83
2023/07/20 00:21:57;;;;;;;8.00;2.17;;;20.60;99.90;;;;;;4988224;28;20216;-83
2023/07/20 00:24:23;;;;;;;6.30;2.47;;;20.50;99.90;;;;;;4989794;28;20765;-83
2023/07/20 00:26:49;;;;;;;7.32;2.67;;;20.50;99.90;;;;;;4990066;28;21141;-83
2023/07/20 00:29:14;;;;;;;6.50;2.65;;;20.50;99.90;;;;;;4990019;28;20125;-83
2023/07/20 00:31:40;;;;;;;6.95;2.72;;;20.50;99.90;;;;;;4987406;28;20068;-82
2023/07/20 00:34:06;;;;;;;5.82;2.47;;;20.50;99.90;;;;;;4989440;28;20121;-83
2023/07/20 00:36:31;;;;;;;6.60;2.78;;;20.40;99.90;;;;;;4987915;28;20057;-83
2023/07/20 00:38:57;;;;;;;12.00;2.55;;;20.40;99.90;;;;;;4988878;28;20030;-82
2023/07/20 00:41:22;;;;;;;5.25;2.45;;;20.40;99.90;;;;;;4988881;28;20497;-83
2023/07/20 00:43:48;;;;;;;3.97;2.33;;;20.40;99.90;;;;;;4987187;28;20022;-83
2023/07/20 00:46:14;;;;;;;6.50;2.70;;;20.30;99.90;;;;;;4986972;28;20109;-83
2023/07/20 00:48:42;;;;;;;9.82;2.33;;;20.30;99.90;;;;;;4988379;28;20053;-83
2023/07/20 00:51:07;;;;;;;9.63;2.60;;;20.30;99.90;;;;;;4986713;28;20053;-83
2023/07/20 00:53:33;;;;;;;5.47;2.50;;;20.20;99.90;;;;;;4988509;28;20369;-82
2023/07/20 00:55:59;;;;;;;4.03;2.40;;;20.20;99.90;;;;;;4987335;28;20038;-83
2023/07/20 00:58:25;;;;;;;6.22;2.65;;;20.20;99.90;;;;;;4987228;28;20038;-83
2023/07/20 01:00:51;;;;;;;3.38;2.13;;;20.20;99.90;;;;;;4985233;28;20033;-83
2023/07/20 01:03:16;;;;;;;5.68;2.50;;;20.10;99.90;;;;;;4989358;28;20073;-83
2023/07/20 01:05:55;;;;;;;6.82;2.35;;;20.10;99.90;;;;;;4986476;28;20067;-83
2023/07/20 01:08:45;;;;;;;5.10;2.20;;;20.10;99.90;;;;;;4988033;28;20465;-83
2023/07/20 01:11:21;;;;;;;6.45;2.40;;;20.10;99.90;;;;;;4988314;28;20114;-82
2023/07/20 01:13:47;;;;;;;6.28;2.50;;;20.10;99.90;;;;;;4986982;28;20105;-83
2023/07/20 01:16:12;;;;;;;6.03;2.50;;;20.00;99.90;;;;;;4990189;28;20113;-82
2023/07/20 01:18:38;;;;;;;4.70;2.40;;;20.00;99.90;;;;;;4987129;28;20030;-83
2023/07/20 01:21:08;;;;;;;5.38;2.47;;;20.00;99.90;;;;;;4988264;28;20038;-83
2023/07/20 01:24:15;;;;;;;7.55;2.67;;;20.00;99.90;;;;;;4986260;28;20080;-83
2023/07/20 01:26:58;;;;;;;5.97;2.42;;;20.00;99.90;;;;;;4990015;28;20068;-83
2023/07/20 01:29:42;;;;;;;9.07;2.60;;;20.00;99.90;;;;;;4987268;28;20026;-83
2023/07/20 01:32:09;;;;;;;9.50;2.23;;;20.00;99.90;;;;;;4991515;28;20108;-83
2023/07/20 01:34:36;;;;;;;6.15;2.33;;;20.00;99.90;;;;;;4990541;28;20034;-83
2023/07/20 01:37:03;;;;;;;6.85;2.10;;;20.00;99.90;;;;;;4985593;28;20186;-83
2023/07/20 01:39:30;;;;;;;6.10;2.20;;;19.90;99.90;;;;;;4987484;28;21436;-83
2023/07/20 01:41:56;;;;;;;4.90;2.00;;;19.90;99.90;;;;;;4986581;28;20031;-82
2023/07/20 01:44:22;;;;;;;6.25;2.72;;;19.90;99.90;;;;;;4992336;28;20101;-82
2023/07/20 01:46:47;;;;;;;5.00;2.13;;;19.90;99.90;;;;;;5006547;28;20126;-83
2023/07/20 01:49:13;;;;;;;5.13;2.33;;;19.90;99.90;;;;;;4990943;28;20030;-83
2023/07/20 01:51:38;;;;;;;6.93;2.45;;;19.90;99.90;;;;;;4989888;28;20049;-83
2023/07/20 01:54:04;;;;;;;6.70;2.13;;;19.90;99.90;;;;;;4990815;28;20049;-84
2023/07/20 01:56:29;;;;;;;8.20;2.50;;;19.80;99.90;;;;;;4991438;28;20030;-83
2023/07/20 01:58:55;;;;;;;4.03;1.85;;;19.80;99.90;;;;;;4990924;28;20025;-83
2023/07/20 02:01:21;;;;;;;6.85;2.53;;;19.80;99.90;;;;;;4992097;28;20034;-83
2023/07/20 02:03:46;;;;;;;6.38;2.30;;;19.80;99.90;;;;;;4990318;28;20030;-83
2023/07/20 02:06:12;;;;;;;7.13;2.28;;;19.80;99.90;;;;;;4989421;28;20036;-84
2023/07/20 02:08:37;;;;;;;7.28;2.47;;;19.70;99.90;;;;;;4991016;28;20056;-83
2023/07/20 02:11:04;;;;;;;4.63;2.10;;;19.80;99.90;;;;;;4991551;28;20125;-83
2023/07/20 02:13:29;;;;;;;5.38;2.28;;;19.80;99.90;;;;;;4987338;28;20034;-83
2023/07/20 02:15:55;;;;;;;7.75;2.05;;;19.70;99.90;;;;;;4993815;28;20038;-83
2023/07/20 02:18:20;;;;;;;9.27;2.60;;;19.70;99.90;;;;;;4990733;28;20030;-83
2023/07/20 02:20:46;;;;;;;7.47;2.42;;;19.70;99.90;;;;;;4993070;28;20045;-83
2023/07/20 02:23:12;;;;;;;6.32;2.40;;;19.70;99.90;;;;;;4993354;28;20122;-83
2023/07/20 02:25:38;;;;;;;7.03;2.58;;;19.70;99.90;;;;;;4991830;28;20038;-84
2023/07/20 02:28:04;;;;;;;3.85;1.90;;;19.70;99.90;;;;;;4989645;28;20034;-83
2023/07/20 02:30:29;;;;;;;6.10;2.00;;;19.70;99.90;;;;;;4990981;28;21444;-83
2023/07/20 02:32:58;;;;;;;5.15;1.85;;;19.70;99.90;;;;;;4994923;28;20033;-82
2023/07/20 02:35:24;;;;;;;5.60;2.25;;;19.70;99.90;;;;;;4996410;28;20095;-82
2023/07/20 02:37:49;;;;;;;6.25;1.88;;;19.70;99.90;;;;;;4993171;28;20136;-81
2023/07/20 02:40:15;;;;;;;5.32;1.85;;;19.70;99.90;;;;;;4994491;28;20026;-83
2023/07/20 02:42:40;;;;;;;6.70;1.92;;;19.70;99.90;;;;;;4992628;28;20112;-83
2023/07/20 02:45:06;;;;;;;4.53;1.90;;;19.70;99.90;;;;;;4993168;28;20999;-83
2023/07/20 02:47:33;;;;;;;2.97;1.92;;;19.70;99.90;;;;;;4992250;28;20041;-83
2023/07/20 02:49:58;;;;;;;6.93;2.00;;;19.60;99.90;;;;;;4992120;28;20034;-82
2023/07/20 02:52:24;;;;;;;6.32;1.73;;;19.60;99.90;;;;;;4992129;28;20034;-81
2023/07/20 02:54:49;;;;;;;4.40;1.70;;;19.60;99.90;;;;;;4988734;28;20018;-82
2023/07/20 02:57:15;;;;;;;5.70;1.80;;;19.60;99.90;;;;;;4990476;28;20124;-81
2023/07/20 02:59:41;;;;;;;6.30;1.80;;;19.50;99.90;;;;;;4996963;28;20069;-82
2023/07/20 03:02:09;;;;;;;3.22;1.67;;;19.50;99.90;;;;;;4997290;28;20026;-82
2023/07/20 03:04:36;;;;;;;4.28;1.48;;;19.50;99.90;;;;;;4997342;28;20041;-82
2023/07/20 03:07:03;;;;;;;5.68;1.80;;;19.50;99.90;;;;;;4995675;28;20030;-82
2023/07/20 03:09:29;;;;;;;3.28;1.70;;;19.50;99.90;;;;;;4997183;28;20060;-82
2023/07/20 03:11:54;;;;;;;6.50;1.88;;;19.50;99.90;;;;;;4996808;28;20029;-82
2023/07/20 03:14:20;;;;;;;4.90;1.80;;;19.50;99.90;;;;;;4995338;28;20035;-81
2023/07/20 03:16:45;;;;;;;5.38;1.90;;;19.40;99.90;;;;;;4996095;28;20053;-82
2023/07/20 03:19:11;;;;;;;2.63;1.40;;;19.40;99.90;;;;;;4996778;28;20026;-81
2023/07/20 03:21:40;;;;;;;3.50;1.83;;;19.40;99.90;;;;;;4997320;28;20097;-81
2023/07/20 03:24:09;;;;;;;4.22;1.63;;;19.40;99.90;;;;;;4996064;28;20030;-82
2023/07/20 03:26:36;;;;;;;3.30;1.90;;;19.40;99.90;;;;;;4996039;28;20484;-81
2023/07/20 03:29:03;;;;;;;6.57;1.88;;;19.40;99.90;;;;;;4997646;28;20650;-81
2023/07/20 03:31:29;;;;;;;4.05;1.90;;;19.30;99.90;;;;;;4997262;28;20083;-82
2023/07/20 03:33:54;;;;;;;4.35;2.13;;;19.30;99.90;;;;;;4994500;28;20026;-82
2023/07/20 03:36:20;;;;;;;7.05;1.70;;;19.30;99.90;;;;;;4996126;28;20057;-82
2023/07/20 03:38:46;;;;;;;4.03;1.85;;;19.20;99.90;;;;;;4996553;28;20609;-82
2023/07/20 03:41:12;;;;;;;4.88;1.77;;;19.20;99.90;;;;;;4995798;28;20090;-82
2023/07/20 03:43:37;;;;;;;9.63;2.10;;;19.20;99.90;;;;;;4996525;28;20041;-81
2023/07/20 03:46:06;;;;;;;4.15;1.88;;;19.20;99.90;;;;;;4995559;28;20026;-81
2023/07/20 03:48:33;;;;;;;4.22;2.20;;;19.20;99.90;;;;;;4995293;28;20770;-82
2023/07/20 03:51:00;;;;;;;7.85;1.85;;;19.20;99.90;;;;;;4995565;28;20022;-82
2023/07/20 03:53:25;;;;;;;11.15;2.20;;;19.10;99.90;;;;;;4995888;28;20085;-81
2023/07/20 03:55:52;;;;;;;6.88;1.73;;;19.00;99.90;;;;;;4994279;28;21181;-82
2023/07/20 03:58:18;;;;;;;6.07;2.10;;;19.00;99.90;;;;;;4994173;28;20042;-82
2023/07/20 04:00:50;;;;;;;6.88;1.88;;;18.90;99.90;;;;;;4992628;28;20131;-82
2023/07/20 04:03:15;;;;;;;4.75;2.08;;;18.80;99.90;;;;;;4994337;28;20033;-82
2023/07/20 04:05:42;;;;;;;4.18;1.80;;;18.80;99.90;;;;;;4992986;28;20030;-75
2023/07/20 04:08:08;;;;;;;5.13;1.80;;;18.80;99.90;;;;;;4985420;28;20043;-75
2023/07/20 04:10:33;;;;;;;4.47;1.80;;;18.70;99.90;;;;;;4987866;28;20029;-75
2023/07/20 04:13:00;;;;;;;9.32;1.90;;;18.70;99.90;;;;;;4987371;28;20130;-74
2023/07/20 04:15:26;;;;;;;4.15;1.90;;;18.70;99.90;;;;;;4985118;28;20022;-75
2023/07/20 04:17:51;;;;;;;5.93;1.95;;;18.70;99.90;;;;;;4984452;28;20104;-75
2023/07/20 04:20:18;;;;;;;7.20;2.28;;;18.60;99.90;;;;;;4985302;28;20026;-75
2023/07/20 04:22:44;;;;;;;4.25;1.90;;;18.60;99.90;;;;;;4986767;28;20030;-75
2023/07/20 04:25:09;;;;;;;6.57;2.22;;;18.60;99.90;;;;;;4985760;28;20500;-75
2023/07/20 04:27:36;;;;;;;4.32;1.90;;;18.60;99.90;;;;;;4987150;28;20034;-75
2023/07/20 04:30:02;;;;;;;4.82;2.00;;;18.50;99.90;;;;;;4985220;28;20348;-75
2023/07/20 04:32:27;;;;;;;4.45;2.10;;;18.50;99.90;;;;;;4985817;28;20487;-76
2023/07/20 04:34:53;;;;;;;4.53;2.08;;;18.40;99.90;;;;;;4986197;28;20033;-75
2023/07/20 04:37:19;;;;;;;5.03;2.20;;;18.40;99.90;;;;;;4984855;28;20083;-76
2023/07/20 04:39:44;;;;;;;4.85;2.00;;;18.40;99.90;;;;;;4984450;28;21065;-75
2023/07/20 04:42:10;;;;;;;3.45;2.00;;;18.40;99.90;;;;;;4985517;28;20027;-75
2023/07/20 04:44:35;;;;;;;4.38;2.10;;;18.40;99.90;;;;;;4986331;28;20028;-75
2023/07/20 04:47:01;;;;;;;8.13;2.55;;;18.40;99.90;;;;;;4985661;28;20689;-75
2023/07/20 04:49:26;;;;;;;6.57;2.15;;;18.40;99.90;;;;;;4986020;28;20426;-75
2023/07/20 04:51:52;;;;;;;7.45;2.40;;;18.50;99.90;;;;;;4986260;28;20505;-75
2023/07/20 04:54:18;;;;;;;4.47;2.13;;;18.40;99.90;;;;;;4985624;28;20096;-74
2023/07/20 04:56:44;;;;;;;6.13;2.20;;;18.40;99.90;;;;;;4985493;28;20085;-74
2023/07/20 04:59:10;;;;;;;4.82;2.20;;;18.40;99.90;;;;;;4983630;28;20037;-74
2023/07/20 05:01:35;;;;;;;4.15;2.10;;;18.50;99.90;;;;;;4984275;28;20042;-75
2023/07/20 05:04:01;;;;;;;7.53;2.30;;;18.40;99.90;;;;;;4985527;28;20036;-75
2023/07/20 05:06:27;;;;;;;4.70;2.20;;;18.50;99.90;;;;;;4975807;28;20037;-75
2023/07/20 05:08:53;;;;;;;6.25;2.00;;;18.50;99.90;;;;;;4982197;28;20933;-75
2023/07/20 05:11:18;;;;;;;5.95;1.88;;;18.50;99.90;;;;;;4981032;28;20061;-75
2023/07/20 05:13:44;;;;;;;3.75;1.98;;;18.60;99.90;;;;;;4982540;28;20080;-74
2023/07/20 05:16:09;;;;;;;3.87;2.03;;;18.60;99.90;;;;;;4969532;28;20026;-73
2023/07/20 05:18:35;;;;;;;7.43;2.20;;;18.60;99.90;;;;;;4978523;28;20151;-74
2023/07/20 05:21:01;;;;;;;8.38;2.47;;;18.70;99.90;;;;;;4979272;28;20061;-74
2023/07/20 05:23:26;;;;;;;6.25;1.95;;;18.70;99.90;;;;;;4976620;28;20030;-75
2023/07/20 05:25:56;;;;;;;6.47;2.13;;;18.70;99.90;;;;;;4977942;28;20317;-74
2023/07/20 05:28:22;;;;;;;5.65;2.03;;;18.80;99.90;;;;;;4980399;28;20200;-75
2023/07/20 05:30:48;;;;;;;6.18;2.10;;;18.80;99.90;;;;;;4979735;28;20688;-74
2023/07/20 05:33:13;;;;;;;3.40;2.08;;;18.90;99.90;;;;;;4976928;28;20038;-74
2023/07/20 05:35:39;;;;;;;4.30;2.05;;;18.90;99.90;;;;;;4976575;28;21299;-74
2023/07/20 05:38:06;;;;;;;4.55;2.03;;;18.90;99.90;;;;;;4979862;28;20120;-75
2023/07/20 05:40:32;;;;;;;5.15;2.10;;;19.00;99.90;;;;;;4980125;28;20034;-74
2023/07/20 05:42:58;;;;;;;2.97;2.00;;;19.00;99.90;;;;;;4977650;28;20535;-74
2023/07/20 05:45:24;;;;;;;4.10;2.30;;;19.00;99.90;;;;;;4977301;28;20022;-73
2023/07/20 05:47:49;;;;;;;7.80;2.15;;;19.00;99.90;;;;;;4978572;28;20045;-74
2023/07/20 05:50:15;;;;;;;6.70;2.28;;;19.00;99.90;;;;;;4979874;28;20033;-73
2023/07/20 05:52:41;;;;;;;6.90;2.38;;;19.00;99.90;;;;;;4980137;28;20038;-74
2023/07/20 05:55:07;;;;;;;7.20;2.85;;;19.00;99.90;;;;;;4979426;28;20077;-73
2023/07/20 05:57:33;;;;;;;6.63;2.10;;;19.10;99.90;;;;;;4979109;28;20037;-73
2023/07/20 05:59:59;;;;;;;3.70;2.10;;;19.20;99.90;;;;;;4979199;28;20027;-74
2023/07/20 06:02:24;;;;;;;6.25;2.10;;;19.30;99.90;;;;;;4979422;28;20078;-75
2023/07/20 06:04:50;;;;;;;5.00;2.08;;;19.40;99.90;;;;;;4977882;28;20072;-74
2023/07/20 06:07:16;;;;;;;6.30;2.20;;;19.40;99.90;;;;;;4977172;28;20046;-74
2023/07/20 06:09:41;;;;;;;5.82;2.10;;;19.50;99.90;;;;;;4977125;28;20030;-74
2023/07/20 06:12:07;;;;;;;4.28;2.35;;;19.50;99.90;;;;;;4980398;28;20034;-74
2023/07/20 06:14:33;;;;;;;6.25;2.10;;;19.50;99.90;;;;;;4977170;28;20030;-74
2023/07/20 06:16:59;;;;;;;3.25;1.80;;;19.40;99.90;;;;;;4979173;28;20133;-74
2023/07/20 06:19:25;;;;;;;5.80;2.15;;;19.40;99.90;;;;;;4977679;28;20440;-75
2023/07/20 06:21:50;;;;;;;3.17;1.90;;;19.40;99.90;;;;;;4977221;28;20140;-76
2023/07/20 06:24:17;;;;;;;5.43;1.92;;;19.40;99.90;;;;;;4975782;28;20847;-75
2023/07/20 06:26:42;;;;;;;5.72;2.20;;;19.50;99.90;;;;;;4976518;28;20026;-74
2023/07/20 06:29:08;;;;;;;6.70;2.30;;;19.50;99.90;;;;;;4979577;28;20626;-74
2023/07/20 06:31:35;;;;;;;5.68;2.47;;;19.50;99.90;;;;;;4980975;28;20038;-74
2023/07/20 06:34:01;;;;;;;5.60;2.08;;;19.50;99.90;;;;;;4977917;28;20033;-74
2023/07/20 06:36:27;;;;;;;5.68;1.85;;;19.50;99.90;;;;;;4977244;28;20022;-75
2023/07/20 06:38:53;;;;;;;9.07;2.10;;;19.50;99.90;;;;;;4978168;28;20607;-74
2023/07/20 06:41:19;;;;;;;6.25;1.90;;;19.60;99.90;;;;;;4981749;28;20596;-75
2023/07/20 06:43:45;;;;;;;4.68;2.10;;;19.70;99.90;;;;;;4986343;28;20064;-75
2023/07/20 06:46:10;;;;;;;9.52;2.65;;;19.80;99.90;;;;;;4988514;28;20040;-82
2023/07/20 06:48:36;;;;;;;4.28;2.10;;;20.00;99.90;;;;;;4989775;28;20026;-82
2023/07/20 06:51:02;;;;;;;8.43;2.30;;;20.10;99.90;;;;;;4992030;28;20029;-82
2023/07/20 06:53:28;;;;;;;8.07;2.00;;;20.30;99.90;;;;;;4993100;28;20060;-82
2023/07/20 06:55:54;;;;;;;6.05;2.08;;;20.30;99.90;;;;;;4987339;28;20044;-83
2023/07/20 06:58:21;;;;;;;8.63;2.00;;;20.40;99.90;;;;;;4990888;28;20026;-83
2023/07/20 07:00:47;;;;;;;5.82;2.25;;;20.50;99.90;;;;;;4990272;28;20111;-83
2023/07/20 07:03:12;;;;;;;9.48;2.63;;;20.70;99.90;;;;;;4991889;28;20025;-82
2023/07/20 07:05:38;;;;;;;7.05;2.20;;;20.80;99.90;;;;;;4991510;28;20035;-83
2023/07/20 07:08:05;;;;;;;3.15;1.90;;;20.80;99.90;;;;;;4992096;28;20037;-82
2023/07/20 07:10:31;;;;;;;4.43;2.15;;;20.80;99.90;;;;;;4991573;28;20161;-82
2023/07/20 07:12:56;;;;;;;8.77;2.35;;;20.90;99.90;;;;;;4992629;28;20037;-82
2023/07/20 07:15:22;;;;;;;4.80;2.35;;;20.90;99.90;;;;;;4992242;28;20042;-82
2023/07/20 07:17:47;;;;;;;4.80;2.10;;;20.90;99.90;;;;;;4989676;28;20236;-82
2023/07/20 07:20:13;;;;;;;6.53;2.30;;;21.00;99.90;;;;;;4990594;28;20077;-83
2023/07/20 07:22:39;;;;;;;7.72;2.40;;;21.10;99.90;;;;;;5002458;28;20034;-82
2023/07/20 07:25:05;;;;;;;6.13;2.17;;;21.10;99.90;;;;;;4991159;28;20403;-82
2023/07/20 07:27:30;;;;;;;3.53;1.92;;;21.20;99.90;;;;;;4990757;28;20038;-83
2023/07/20 07:29:56;;;;;;;4.20;2.42;;;21.20;99.90;;;;;;4993503;28;20041;-83
2023/07/20 07:32:22;;;;;;;4.63;1.90;;;21.20;99.90;;;;;;4992689;28;20026;-83
2023/07/20 07:34:48;;;;;;;7.35;2.00;;;21.20;99.90;;;;;;4991538;28;20699;-82
2023/07/20 07:37:14;;;;;;;4.70;2.47;;;21.20;99.90;;;;;;4990351;28;20380;-82
2023/07/20 07:39:39;;;;;;;3.90;1.90;;;21.10;99.90;;;;;;4992741;28;20027;-82
2023/07/20 07:42:05;;;;;;;5.25;1.90;;;21.10;99.90;;;;;;4992914;28;20035;-82
2023/07/20 07:44:31;;;;;;;3.65;2.20;;;21.00;99.90;;;;;;4992112;28;21485;-82
2023/07/20 07:46:57;;;;;;;5.18;2.00;;;21.10;99.90;;;;;;4989499;28;20058;-82
2023/07/20 07:49:22;;;;;;;6.45;2.20;;;21.00;99.90;;;;;;4992157;28;20046;-82
2023/07/20 07:51:48;;;;;;;5.03;1.75;;;21.00;99.90;;;;;;4990757;28;20026;-82
2023/07/20 07:54:14;;;;;;;4.93;2.10;;;21.00;99.90;;;;;;4988153;28;20292;-82
2023/07/20 07:56:40;;;;;;;6.25;1.90;;;21.00;99.90;;;;;;4990269;28;20038;-82
2023/07/20 07:59:06;;;;;;;4.82;1.65;;;21.00;99.90;;;;;;4992227;28;20079;-82
2023/07/20 08:01:32;;;;;;;4.75;2.30;;;21.20;99.90;;;;;;4990446;28;20037;-83
2023/07/20 08:03:57;;;;;;;4.80;2.08;;;21.30;99.90;;;;;;4992293;28;20023;-83
2023/07/20 08:06:24;;;;;;;7.07;2.50;;;21.40;99.90;;;;;;4990670;28;20136;-82
2023/07/20 08:08:49;;;;;;;6.28;2.30;;;21.50;99.90;;;;;;4992152;28;20084;-82
2023/07/20 08:11:15;;;;;;;7.72;2.33;;;21.50;99.90;;;;;;4990568;28;20785;-83
2023/07/20 08:13:41;;;;;;;5.53;2.08;;;21.50;99.90;;;;;;4991461;28;20030;-83
2023/07/20 08:16:07;;;;;;;7.93;2.00;;;21.60;99.90;;;;;;4990103;28;20086;-82
2023/07/20 08:18:32;;;;;;;9.30;2.50;;;21.70;99.90;;;;;;4990141;28;20030;-83
2023/07/20 08:20:58;;;;;;;3.30;1.92;;;21.80;99.90;;;;;;4990384;28;20077;-83
2023/07/20 08:23:23;;;;;;;4.57;2.15;;;21.90;99.90;;;;;;4989800;28;20039;-82
2023/07/20 08:25:49;;;;;;;5.18;2.33;;;22.00;99.90;;;;;;4991473;28;20140;-82
2023/07/20 08:28:16;;;;;;;5.43;2.10;;;22.10;99.90;;;;;;4990261;28;20025;-82
2023/07/20 08:30:43;;;;;;;3.53;2.28;;;22.20;99.90;;;;;;4990374;28;20058;-83
2023/07/20 08:33:10;;;;;;;2.70;1.80;;;22.30;99.90;;;;;;4991802;28;20027;-82
2023/07/20 08:35:36;;;;;;;4.82;2.00;;;22.20;99.90;;;;;;4990478;28;20038;-83
2023/07/20 08:38:02;;;;;;;8.90;2.25;;;22.20;99.90;;;;;;4989355;28;20378;-82
2023/07/20 08:40:27;;;;;;;4.20;2.22;;;22.20;99.90;;;;;;4990729;28;20481;-82
2023/07/20 08:42:55;;;;;;;5.30;1.90;;;22.30;99.90;;;;;;4991010;28;20038;-82
2023/07/20 08:45:23;;;;;;;4.28;1.73;;;22.40;99.90;;;;;;4992217;28;20034;-83
2023/07/20 08:47:50;;;;;;;3.17;1.80;;;22.60;99.90;;;;;;4989755;28;20068;-82
2023/07/20 08:50:16;;;;;;;3.88;1.90;;;22.60;99.90;;;;;;4991206;28;20137;-83
2023/07/20 08:52:42;;;;;;;4.93;1.80;;;22.70;99.90;;;;;;4990341;28;20030;-83
2023/07/20 08:55:08;;;;;;;4.32;2.08;;;22.80;99.90;;;;;;4991526;28;20025;-83
2023/07/20 08:57:34;;;;;;;4.32;2.05;;;22.90;99.90;;;;;;4988016;28;21060;-83
2023/07/20 09:00:12;;;;;;;4.30;1.90;;;22.90;99.90;;;;;;4991553;28;20031;-83
2023/07/20 09:02:42;;;;;;;5.65;1.80;;;23.00;99.90;;;;;;4990439;28;20048;-82
2023/07/20 09:05:09;;;;;;;2.72;1.83;;;22.90;99.90;;;;;;4991735;28;20041;-83
2023/07/20 09:07:36;;;;;;;5.30;2.03;;;23.00;99.90;;;;;;4989432;28;20083;-83
2023/07/20 09:10:05;;;;;;;6.00;2.10;;;23.10;99.90;;;;;;4988387;28;20623;-83
2023/07/20 09:12:32;;;;;;;6.07;2.35;;;23.20;99.90;;;;;;4993008;28;20527;-83
2023/07/20 09:14:58;;;;;;;5.53;1.77;;;23.30;99.90;;;;;;4991668;28;20030;-82
2023/07/20 09:17:26;;;;;;;5.30;1.90;;;23.40;99.90;;;;;;4989003;28;20030;-82
2023/07/20 09:19:51;;;;;;;5.07;1.92;;;23.60;99.90;;;;;;4991907;28;20555;-82
2023/07/20 09:22:17;;;;;;;3.55;2.00;;;23.70;99.90;;;;;;4990601;28;20053;-82
2023/07/20 09:24:43;;;;;;;4.78;2.13;;;23.80;99.90;;;;;;4986640;28;20104;-83
2023/07/20 09:27:10;;;;;;;3.10;1.88;;;23.80;99.90;;;;;;4989433;28;20033;-83
2023/07/20 09:29:50;;;;;;;4.55;1.92;;;23.60;99.90;;;;;;4987605;28;20725;-84
2023/07/20 09:32:21;;;;;;;3.97;2.33;;;23.70;99.90;;;;;;4989539;28;20037;-83
2023/07/20 09:34:46;;;;;;;4.20;2.22;;;23.60;99.90;;;;;;4987691;28;20026;-83
2023/07/20 09:37:12;;;;;;;5.05;1.90;;;23.70;99.90;;;;;;4990656;28;20041;-83
2023/07/20 09:39:45;;;;;;;4.80;2.90;;;23.80;99.90;;;;;;4991420;28;20093;-83
2023/07/20 09:42:15;;;;;;;4.00;1.98;;;23.90;99.90;;;;;;4990626;28;20049;-83
2023/07/20 09:44:43;;;;;;;5.72;2.15;;;23.90;99.90;;;;;;4992447;28;20064;-82
2023/07/20 09:47:09;;;;;;;5.45;2.03;;;24.00;99.90;;;;;;4992454;28;20776;-83
2023/07/20 09:49:42;;;;;;;3.53;1.98;;;24.00;99.90;;;;;;4993378;28;20018;-84
2023/07/20 09:52:11;;;;;;;3.75;2.15;;;24.10;99.90;;;;;;4989347;28;20124;-83
2023/07/20 09:54:39;;;;;;;3.63;1.83;;;24.40;99.90;;;;;;4990895;28;20037;-84
2023/07/20 09:57:08;;;;;;;4.68;2.05;;;24.70;99.90;;;;;;4989677;28;20073;-84
2023/07/20 09:59:33;;;;;;;5.00;1.80;;;25.00;98.90;;;;;;4988648;28;20030;-84
2023/07/20 10:02:05;;;;;;;6.80;1.98;;;25.40;99.00;;;;;;4988107;28;20045;-83
2023/07/20 10:04:34;;;;;;;5.20;1.77;;;25.60;99.20;;;;;;4990625;28;20034;-84
2023/07/20 10:07:05;;;;;;;4.18;1.90;;;25.70;99.40;;;;;;4992035;28;20031;-84
2023/07/20 10:09:32;;;;;;;4.55;2.10;;;25.90;98.40;;;;;;4991511;28;20040;-84
2023/07/20 10:11:59;;;;;;;5.03;2.10;;;25.70;98.20;;;;;;4990492;28;20030;-84
2023/07/20 10:14:30;;;;;;;4.28;1.90;;;25.70;98.70;;;;;;4990913;28;20453;-74
2023/07/20 10:17:03;;;;;;;5.63;2.10;;;25.80;98.10;;;;;;4988091;28;20555;-75
2023/07/20 10:19:39;;;;;;;4.78;2.05;;;25.60;98.60;;;;;;4988074;28;20018;-74
2023/07/20 10:22:13;;;;;;;4.28;2.08;;;25.40;98.30;;;;;;4987344;28;20061;-84
2023/07/20 10:24:41;;;;;;;5.03;1.83;;;25.20;99.40;;;;;;4986822;28;20046;-84
2023/07/20 10:27:06;;;;;;;2.75;1.80;;;25.10;98.20;;;;;;4989812;28;21419;-84
2023/07/20 10:29:33;;;;;;;10.13;2.85;;;25.00;98.90;;;;;;4990269;28;20113;-84
2023/07/20 10:31:59;;;;;;;4.85;2.10;;;24.90;99.20;;;;;;4985135;28;20061;-84
2023/07/20 10:34:25;;;;;;;4.78;2.00;;;24.70;98.20;;;;;;4990555;28;20025;-84
2023/07/20 10:36:52;;;;;;;4.18;1.98;;;24.50;98.80;;;;;;4991364;28;20042;-83
2023/07/20 10:39:25;;;;;;;3.75;2.15;;;24.40;99.40;;;;;;4992531;28;20033;-83
2023/07/20 10:42:09;;;;;;;4.85;2.28;;;24.40;99.60;;;;;;4992243;28;20449;-83
2023/07/20 10:44:37;;;;;;;6.90;2.17;;;24.50;98.60;;;;;;4990586;28;21380;-83
2023/07/20 10:47:08;;;;;;;5.65;2.30;;;24.40;98.30;;;;;;4990311;28;20035;-84
2023/07/20 10:49:35;;;;;;;7.00;2.30;;;24.30;99.20;;;;;;4991293;28;20532;-84
2023/07/20 10:52:04;;;;;;;4.57;2.10;;;24.10;99.50;;;;;;4990844;28;20053;-83
2023/07/20 10:54:33;;;;;;;3.78;1.77;;;24.10;99.20;;;;;;4981254;28;20113;-84
2023/07/20 10:57:28;;;;;;;4.70;2.42;;;24.00;99.90;;;;;;4979708;28;21431;-84
2023/07/20 11:00:08;;;;;;;4.93;1.95;;;23.90;99.90;;;;;;4980842;28;20018;-84
2023/07/20 11:02:45;;;;;;;7.55;2.30;;;24.00;99.90;;;;;;4978467;28;20038;-83
2023/07/20 11:05:33;;;;;;;3.35;1.65;;;24.00;98.40;;;;;;4980941;28;20092;-84
2023/07/20 11:07:59;;;;;;;5.47;1.90;;;24.10;99.90;;;;;;4979359;28;20038;-84
2023/07/20 11:10:25;;;;;;;3.58;1.75;;;24.40;99.90;;;;;;4978868;28;20092;-84
2023/07/20 11:13:35;;;;;;;2.63;1.80;;;24.70;98.80;;;;;;4978132;28;20042;-83
2023/07/20 11:16:05;;;;;;;6.00;2.22;;;25.10;99.40;;;;;;4972716;28;20119;-84
2023/07/20 11:18:33;;;;;;;4.65;1.85;;;25.20;98.00;;;;;;4979741;28;20464;-84
2023/07/20 11:20:59;;;;;;;4.55;2.00;;;25.10;98.60;;;;;;4979862;28;20030;-84
2023/07/20 11:23:25;;;;;;;4.10;1.80;;;25.10;97.80;;;;;;4978593;28;20030;-84
2023/07/20 11:25:51;;;;;;;4.78;1.80;;;25.00;98.30;;;;;;4974302;28;20669;-85
2023/07/20 11:28:16;;;;;;;4.55;1.90;;;24.90;98.90;;;;;;4975546;28;20030;-83
2023/07/20 11:30:42;;;;;;;5.10;1.90;;;24.80;98.30;;;;;;4977385;28;20101;-84
2023/07/20 11:33:11;;;;;;;4.93;1.60;;;24.80;98.80;;;;;;4978700;28;20093;-84
2023/07/20 11:35:46;;;;;;;5.22;1.88;;;24.90;98.30;;;;;;4978449;28;20181;-84
2023/07/20 11:38:13;;;;;;;4.65;2.10;;;25.00;98.30;;;;;;4976969;28;21522;-83
2023/07/20 11:40:44;;;;;;;5.60;1.80;;;25.00;98.60;;;;;;4977541;28;20049;-83
2023/07/20 11:43:15;;;;;;;5.35;2.22;;;24.90;98.40;;;;;;4979417;28;20051;-83
2023/07/20 11:45:40;;;;;;;4.75;1.95;;;24.90;99.00;;;;;;4977574;28;20087;-84
2023/07/20 11:48:06;;;;;;;5.20;1.98;;;24.90;98.70;;;;;;4979715;28;20034;-84
2023/07/20 11:50:32;;;;;;;4.00;2.10;;;24.80;98.90;;;;;;4977737;28;20030;-84
2023/07/20 11:52:57;;;;;;;5.75;2.10;;;24.80;99.10;;;;;;4977750;28;20726;-84
2023/07/20 11:55:23;;;;;;;3.95;1.90;;;25.00;98.00;;;;;;4978088;28;20034;-84
2023/07/20 11:58:05;;;;;;;6.90;2.10;;;25.50;98.70;;;;;;4977778;28;20039;-84
2023/07/20 12:00:35;;;;;;;6.38;2.00;;;26.00;97.10;;;;;;4978318;28;21432;-83
2023/07/20 12:03:01;;;;;;;6.93;2.08;;;26.30;96.30;;;;;;4974315;28;20040;-83
2023/07/20 12:05:27;;;;;;;4.18;1.70;;;26.50;97.40;;;;;;4976580;28;20026;-83
2023/07/20 12:07:52;;;;;;;4.28;1.80;;;26.40;96.80;;;;;;4976405;28;21627;-85
2023/07/20 12:10:28;;;;;;;4.30;2.03;;;26.60;95.70;;;;;;4977335;28;20118;-84
2023/07/20 12:12:54;;;;;;;7.35;1.90;;;26.90;95.30;;;;;;4976822;28;21078;-84
2023/07/20 12:15:26;;;;;;;3.28;1.65;;;26.90;96.30;;;;;;4975734;28;20022;-84
2023/07/20 12:17:53;;;;;;;4.07;2.40;;;27.10;96.40;;;;;;4974521;28;20141;-84
2023/07/20 12:20:28;;;;;;;5.50;1.85;;;27.30;95.20;;;;;;4977280;28;20081;-84
2023/07/20 12:22:57;;;;;;;9.07;1.90;;;27.70;94.90;;;;;;4978865;28;20037;-84
2023/07/20 12:25:22;;;;;;;3.67;1.85;;;28.00;95.60;;;;;;4976893;28;20034;-84
2023/07/20 12:27:48;;;;;;;6.10;1.75;;;28.50;93.40;;;;;;4972836;28;20049;-85
2023/07/20 12:30:14;;;;;;;3.45;1.77;;;28.90;93.50;;;;;;4975399;28;20034;-84
2023/07/20 12:32:40;;;;;;;3.25;1.73;;;29.20;92.30;;;;;;4975772;28;20034;-84
2023/07/20 12:35:06;;;;;;;5.00;1.80;;;29.50;92.30;;;;;;4976708;28;20097;-85
2023/07/20 12:37:32;;;;;;;6.72;1.98;;;29.50;91.30;;;;;;4975033;28;20224;-84
2023/07/20 12:39:57;;;;;;;6.03;1.70;;;29.30;91.50;;;;;;4974474;28;20073;-84
2023/07/20 12:42:23;;;;;;;3.42;1.70;;;29.40;92.00;;;;;;4975411;28;20027;-84
2023/07/20 12:44:50;;;;;;;3.65;1.80;;;29.90;92.10;;;;;;4973508;28;21179;-84
2023/07/20 12:47:17;;;;;;;2.95;1.70;;;30.00;91.30;;;;;;4973509;28;20036;-84